Canefield Airport

Fair
28oC (82oF)

Fair


Winds: Easterly @ 05kts/ 09km/h

Humidity: 57%

Barometric Pressure: 1013 mb

Accumulated Rainfall for December: 105.0 mm

Updated: 17:00 local time (21:00 UTC)

Douglas-Charles Airport

Cloudy with adjacent showers
26oC (79oF)

Cloudy with adjacent showers


Winds: East north easterly @ 08kts / 15km/h

Humidity: 79%

Barometric Pressure: 1015 mb

Accumulated Rainfall for December: 254.1 mm

Updated: 17:00 local time (21:00 UTC)

Satellite Imagery

Satellite Imagery
Click image for larger view. (Source: National Hurricane Center).

Aviation Routine Report (METAR)

Douglas-Charles: METAR TDPD 172100Z 06008KT 9999 BKN016 26/22 Q1015=
Canefield: METAR TDCF 172100Z 08005KT 9999 FEW018 28/19 Q1013=